Time;durP1;ratioP1;P1;durP2;ratioP2;P2;SDS_P1;SDS_P2;PMS_P1;PMS_P2;Temp;Humidity;BMP_temperature;BMP_pressure;BME280_temperature;BME280_humidity;BME280_pressure;Samples;Min_cycle;Max_cycle;Signal;HPM_P1;HPM_P2
2022/11/14 00:02:25;;;;;;;29.65;12.93;;;6.10;99.90;;;;;;5039848;28;20045;-41
2022/11/14 00:04:51;;;;;;;26.05;11.55;;;6.10;99.90;;;;;;5045066;28;20047;-46
2022/11/14 00:07:17;;;;;;;27.80;11.98;;;6.10;99.90;;;;;;5040925;28;20038;-44
2022/11/14 00:09:42;;;;;;;26.70;11.65;;;6.10;99.90;;;;;;5049962;28;20402;-48
2022/11/14 00:12:09;;;;;;;26.80;12.10;;;6.20;99.90;;;;;;5045914;28;20483;-47
2022/11/14 00:14:35;;;;;;;29.10;12.40;;;6.20;99.90;;;;;;5043507;28;20033;-42
2022/11/14 00:17:01;;;;;;;26.23;12.05;;;6.20;99.90;;;;;;5062260;28;20040;-39
2022/11/14 00:19:27;;;;;;;27.42;12.20;;;6.20;99.90;;;;;;5040688;28;20037;-44
2022/11/14 00:21:52;;;;;;;27.00;12.15;;;6.20;99.90;;;;;;5037213;28;20045;-47
2022/11/14 00:24:18;;;;;;;28.38;12.40;;;6.20;99.90;;;;;;5042667;28;20037;-47
2022/11/14 00:26:44;;;;;;;26.98;12.23;;;6.30;99.90;;;;;;5042376;28;20052;-45
2022/11/14 00:29:11;;;;;;;27.08;12.43;;;6.30;99.90;;;;;;5045414;28;20049;-43
2022/11/14 00:31:36;;;;;;;26.60;11.73;;;6.30;99.90;;;;;;5041167;28;21493;-45
2022/11/14 00:34:02;;;;;;;29.15;12.48;;;6.30;99.90;;;;;;5044385;28;20034;-45
2022/11/14 00:36:28;;;;;;;27.38;11.43;;;6.30;99.90;;;;;;5038522;28;20116;-42
2022/11/14 00:38:54;;;;;;;24.38;11.48;;;6.30;99.90;;;;;;5047630;28;20044;-48
2022/11/14 00:41:20;;;;;;;26.15;11.20;;;6.30;99.90;;;;;;5039962;28;20036;-41
2022/11/14 00:43:46;;;;;;;27.33;11.63;;;6.30;99.90;;;;;;5043090;28;20056;-46
2022/11/14 00:46:11;;;;;;;27.55;11.23;;;6.40;99.90;;;;;;5042612;28;20127;-46
2022/11/14 00:48:37;;;;;;;26.85;12.18;;;6.40;99.90;;;;;;5044999;28;20033;-46
2022/11/14 00:51:03;;;;;;;30.88;12.80;;;6.40;99.90;;;;;;5045078;28;20115;-44
2022/11/14 00:53:29;;;;;;;27.50;11.85;;;6.40;99.90;;;;;;5040060;28;20029;-45
2022/11/14 00:55:54;;;;;;;29.38;13.32;;;6.40;99.90;;;;;;5039288;28;20548;-45
2022/11/14 00:58:20;;;;;;;26.63;12.25;;;6.40;99.90;;;;;;5040809;28;20659;-44
2022/11/14 01:00:46;;;;;;;26.35;12.35;;;6.40;99.90;;;;;;5044500;28;20037;-43
2022/11/14 01:03:11;;;;;;;27.88;12.25;;;6.50;99.90;;;;;;5044587;28;20106;-48
2022/11/14 01:05:45;;;;;;;31.00;13.93;;;6.40;99.90;;;;;;5044328;28;20040;-45
2022/11/14 01:08:12;;;;;;;29.30;13.48;;;6.50;99.90;;;;;;5044937;28;20048;-44
2022/11/14 01:10:40;;;;;;;28.80;13.38;;;6.40;99.90;;;;;;5045741;28;20040;-47
2022/11/14 01:13:06;;;;;;;32.95;14.20;;;6.50;99.90;;;;;;5041452;28;20045;-44
2022/11/14 01:15:32;;;;;;;29.73;13.25;;;6.50;99.90;;;;;;5047545;28;20033;-46
2022/11/14 01:17:57;;;;;;;35.03;14.65;;;6.50;99.90;;;;;;5045536;28;20048;-43
2022/11/14 01:20:23;;;;;;;33.60;15.05;;;6.40;99.90;;;;;;5041925;28;20035;-44
2022/11/14 01:22:49;;;;;;;33.88;15.48;;;6.40;99.90;;;;;;5040931;28;20033;-45
2022/11/14 01:25:14;;;;;;;33.90;14.73;;;6.40;99.90;;;;;;5048230;28;20402;-45
2022/11/14 01:27:40;;;;;;;33.58;14.90;;;6.40;99.90;;;;;;5046877;28;20056;-40
2022/11/14 01:30:06;;;;;;;36.15;16.15;;;6.40;99.90;;;;;;5046660;28;20053;-45
2022/11/14 01:32:32;;;;;;;36.05;15.05;;;6.40;99.90;;;;;;5046926;28;20158;-48
2022/11/14 01:34:57;;;;;;;34.80;15.70;;;6.40;99.90;;;;;;5043176;28;20108;-49
2022/11/14 01:37:23;;;;;;;30.15;14.10;;;6.30;99.90;;;;;;5040863;28;20024;-49
2022/11/14 01:39:49;;;;;;;30.00;14.65;;;6.30;99.90;;;;;;5043739;28;20044;-46
2022/11/14 01:42:14;;;;;;;35.40;15.98;;;6.30;99.90;;;;;;5042749;28;20040;-45
2022/11/14 01:44:45;;;;;;;32.78;15.38;;;6.20;99.90;;;;;;5044256;28;20040;-43
2022/11/14 01:47:15;;;;;;;32.80;14.70;;;6.20;99.90;;;;;;5043821;28;20109;-43
2022/11/14 01:49:44;;;;;;;32.33;15.00;;;6.20;99.90;;;;;;5045010;28;20422;-44
2022/11/14 01:52:20;;;;;;;33.00;14.98;;;6.10;99.90;;;;;;5041862;28;20041;-42
2022/11/14 01:54:50;;;;;;;32.50;15.40;;;6.10;99.90;;;;;;5044560;28;20517;-42
2022/11/14 01:57:20;;;;;;;33.88;15.02;;;6.00;99.90;;;;;;5043347;28;20046;-46
2022/11/14 01:59:50;;;;;;;31.63;16.20;;;6.00;99.90;;;;;;5038874;28;20037;-43
2022/11/14 02:02:21;;;;;;;36.25;16.05;;;6.00;99.90;;;;;;5048096;28;20174;-45
2022/11/14 02:04:59;;;;;;;31.95;15.73;;;5.90;99.90;;;;;;5045762;28;20045;-43
2022/11/14 02:07:28;;;;;;;34.50;16.13;;;5.90;99.90;;;;;;5044584;28;20052;-46
2022/11/14 02:09:55;;;;;;;36.53;17.13;;;5.90;99.90;;;;;;5041551;28;20040;-39
2022/11/14 02:12:21;;;;;;;31.08;15.98;;;5.80;99.90;;;;;;5049688;28;20552;-43
2022/11/14 02:14:51;;;;;;;34.72;15.27;;;5.80;99.90;;;;;;5049580;28;20068;-44
2022/11/14 02:17:18;;;;;;;37.03;15.70;;;5.80;99.90;;;;;;5046740;28;20032;-45
2022/11/14 02:20:05;;;;;;;35.20;15.90;;;5.80;99.90;;;;;;5046303;28;20463;-44
2022/11/14 02:22:31;;;;;;;34.45;16.17;;;5.80;99.90;;;;;;5047055;28;20055;-45
2022/11/14 02:24:56;;;;;;;32.88;16.35;;;5.70;99.90;;;;;;5045371;28;20406;-45
2022/11/14 02:27:22;;;;;;;32.78;15.48;;;5.70;99.90;;;;;;5044333;28;20044;-43
2022/11/14 02:29:48;;;;;;;36.60;16.25;;;5.70;99.90;;;;;;5046062;28;20461;-47
2022/11/14 02:32:14;;;;;;;31.23;13.70;;;5.70;99.90;;;;;;5043818;28;20422;-43
2022/11/14 02:34:39;;;;;;;36.85;16.73;;;5.70;99.90;;;;;;5044606;28;20439;-43
2022/11/14 02:37:06;;;;;;;36.97;16.35;;;5.60;99.90;;;;;;5043395;28;20036;-43
2022/11/14 02:39:31;;;;;;;38.00;16.40;;;5.60;99.90;;;;;;5050987;28;20039;-39
2022/11/14 02:41:57;;;;;;;36.25;16.48;;;5.60;99.90;;;;;;5048944;28;20036;-39
2022/11/14 02:44:23;;;;;;;30.75;14.05;;;5.60;99.90;;;;;;5041278;28;20159;-43
2022/11/14 02:46:49;;;;;;;38.42;17.33;;;5.60;99.90;;;;;;5041757;28;20454;-46
2022/11/14 02:49:14;;;;;;;35.63;16.25;;;5.50;99.90;;;;;;5040820;28;20413;-43
2022/11/14 02:51:40;;;;;;;31.67;14.30;;;5.50;99.90;;;;;;5044741;28;20048;-44
2022/11/14 02:54:06;;;;;;;37.78;16.42;;;5.50;99.90;;;;;;5046102;28;20210;-44
2022/11/14 02:56:32;;;;;;;34.65;16.00;;;5.50;99.90;;;;;;5047549;28;20494;-42
2022/11/14 02:58:58;;;;;;;34.35;15.60;;;5.50;99.90;;;;;;5044403;28;20087;-38
2022/11/14 03:01:23;;;;;;;39.08;17.88;;;5.50;99.90;;;;;;5043022;28;20090;-42
2022/11/14 03:03:49;;;;;;;35.40;16.40;;;5.50;99.90;;;;;;5037811;28;20461;-44
2022/11/14 03:06:15;;;;;;;36.22;16.88;;;5.50;99.90;;;;;;5045299;28;20041;-45
2022/11/14 03:08:41;;;;;;;36.05;17.25;;;5.50;99.90;;;;;;5043416;28;20098;-44
2022/11/14 03:11:08;;;;;;;36.88;16.60;;;5.50;99.90;;;;;;5042297;28;20037;-43
2022/11/14 03:13:34;;;;;;;35.85;16.92;;;5.50;99.90;;;;;;5041271;28;20137;-45
2022/11/14 03:16:08;;;;;;;36.03;16.85;;;5.50;99.90;;;;;;5045154;28;20056;-43
2022/11/14 03:18:34;;;;;;;35.60;15.50;;;5.40;99.90;;;;;;5040869;28;20025;-41
2022/11/14 03:21:08;;;;;;;33.92;15.95;;;5.40;99.90;;;;;;5041800;28;20090;-44
2022/11/14 03:23:35;;;;;;;35.30;16.70;;;5.40;99.90;;;;;;5032851;28;20041;-45
2022/11/14 03:26:04;;;;;;;38.80;16.33;;;5.40;99.90;;;;;;5041261;28;20037;-46
2022/11/14 03:28:29;;;;;;;40.58;17.52;;;5.40;99.90;;;;;;5037385;28;20053;-43
2022/11/14 03:30:55;;;;;;;34.10;16.10;;;5.40;99.90;;;;;;5041538;28;20246;-45
2022/11/14 03:33:21;;;;;;;32.83;15.02;;;5.40;99.90;;;;;;5039005;28;20029;-46
2022/11/14 03:35:49;;;;;;;40.65;17.33;;;5.40;99.90;;;;;;5038066;28;20045;-44
2022/11/14 03:38:15;;;;;;;37.88;16.92;;;5.40;99.90;;;;;;5047620;28;20570;-46
2022/11/14 03:40:41;;;;;;;37.45;16.88;;;5.50;99.90;;;;;;5042323;28;20502;-44
2022/11/14 03:43:07;;;;;;;40.33;18.50;;;5.50;99.90;;;;;;5037764;28;20052;-46
2022/11/14 03:45:32;;;;;;;40.83;18.10;;;5.50;99.90;;;;;;5041215;28;20036;-45
2022/11/14 03:47:58;;;;;;;44.90;19.08;;;5.50;99.90;;;;;;5044302;28;20044;-39
2022/11/14 03:50:23;;;;;;;36.47;17.05;;;5.50;99.90;;;;;;5039494;28;20036;-49
2022/11/14 03:52:49;;;;;;;37.72;18.60;;;5.50;99.90;;;;;;5042934;28;20370;-42
2022/11/14 03:55:15;;;;;;;43.72;18.77;;;5.50;99.90;;;;;;5045099;28;20513;-44
2022/11/14 03:57:41;;;;;;;39.65;18.35;;;5.50;99.90;;;;;;5047175;28;20033;-44
2022/11/14 04:00:08;;;;;;;41.13;18.35;;;5.50;99.90;;;;;;5042255;28;20045;-43
2022/11/14 04:02:34;;;;;;;39.67;18.70;;;5.50;99.90;;;;;;5038152;28;20045;-42
2022/11/14 04:05:00;;;;;;;37.88;17.20;;;5.50;99.90;;;;;;5044449;28;20174;-44
2022/11/14 04:07:26;;;;;;;38.88;16.30;;;5.40;99.90;;;;;;5043036;28;20116;-47
2022/11/14 04:09:51;;;;;;;40.47;17.92;;;5.50;99.90;;;;;;5042817;28;20502;-44
2022/11/14 04:12:17;;;;;;;43.72;19.35;;;5.40;99.90;;;;;;5043611;28;20465;-44
2022/11/14 04:14:43;;;;;;;39.33;16.83;;;5.40;99.90;;;;;;5044592;28;20390;-46
2022/11/14 04:17:09;;;;;;;43.03;18.48;;;5.40;99.90;;;;;;5047226;28;20045;-44
2022/11/14 04:19:35;;;;;;;42.75;19.52;;;5.40;99.90;;;;;;5043377;28;20041;-43
2022/11/14 04:22:01;;;;;;;39.38;18.38;;;5.30;99.90;;;;;;5045472;28;20052;-45
2022/11/14 04:24:27;;;;;;;41.10;19.65;;;5.30;99.90;;;;;;5042147;28;20064;-44
2022/11/14 04:26:52;;;;;;;44.50;19.38;;;5.30;99.90;;;;;;5044977;28;20403;-48
2022/11/14 04:29:18;;;;;;;40.50;17.95;;;5.30;99.90;;;;;;5046089;28;20406;-44
2022/11/14 04:31:44;;;;;;;43.65;19.40;;;5.30;99.90;;;;;;5041836;28;20059;-45
2022/11/14 04:34:10;;;;;;;39.10;17.88;;;5.20;99.90;;;;;;5045459;28;20101;-41
2022/11/14 04:36:35;;;;;;;39.78;18.17;;;5.20;99.90;;;;;;5047527;28;20033;-46
2022/11/14 04:39:01;;;;;;;36.40;17.05;;;5.20;99.90;;;;;;5042618;28;20033;-47
2022/11/14 04:41:27;;;;;;;38.85;17.60;;;5.20;99.90;;;;;;5043721;28;20076;-41
2022/11/14 04:43:52;;;;;;;36.17;17.23;;;5.20;99.90;;;;;;5048289;28;20037;-46
2022/11/14 04:46:18;;;;;;;40.55;18.13;;;5.10;99.90;;;;;;5052456;28;20398;-45
2022/11/14 04:48:43;;;;;;;41.65;19.42;;;5.20;99.90;;;;;;5047544;28;20094;-41
2022/11/14 04:51:09;;;;;;;36.33;16.83;;;5.10;99.90;;;;;;5047111;28;20448;-45
2022/11/14 04:53:35;;;;;;;42.05;19.90;;;5.10;99.90;;;;;;5045118;28;20044;-45
2022/11/14 04:56:00;;;;;;;44.38;19.52;;;5.10;99.90;;;;;;5041970;28;20406;-45
2022/11/14 04:58:26;;;;;;;42.75;18.85;;;5.10;99.90;;;;;;5049638;28;20041;-44
2022/11/14 05:00:52;;;;;;;44.47;20.23;;;5.10;99.90;;;;;;5042649;28;20486;-43
2022/11/14 05:03:18;;;;;;;45.05;20.70;;;5.20;99.90;;;;;;5038639;28;20483;-46
2022/11/14 05:05:43;;;;;;;44.35;21.15;;;5.20;99.90;;;;;;5040849;28;20037;-47
2022/11/14 05:08:09;;;;;;;43.85;19.63;;;5.20;99.90;;;;;;5046267;28;20148;-42
2022/11/14 05:10:35;;;;;;;40.95;18.50;;;5.20;99.90;;;;;;5049736;28;20048;-43
2022/11/14 05:13:00;;;;;;;45.60;20.85;;;5.20;99.90;;;;;;5038339;28;20474;-43
2022/11/14 05:15:26;;;;;;;44.17;19.55;;;5.20;99.90;;;;;;5046330;28;20504;-48
2022/11/14 05:17:51;;;;;;;49.42;21.48;;;5.20;99.90;;;;;;5038670;28;20499;-45
2022/11/14 05:20:17;;;;;;;45.67;20.77;;;5.20;99.90;;;;;;5046477;28;20481;-44
2022/11/14 05:22:43;;;;;;;46.63;20.02;;;5.20;99.90;;;;;;5044167;28;20053;-43
2022/11/14 05:25:09;;;;;;;43.08;18.33;;;5.20;99.90;;;;;;5041368;28;20127;-46
2022/11/14 05:27:34;;;;;;;44.78;19.00;;;5.20;99.90;;;;;;5047551;28;20040;-41
2022/11/14 05:30:00;;;;;;;48.25;21.35;;;5.20;99.90;;;;;;5042486;28;20114;-45
2022/11/14 05:32:26;;;;;;;49.60;21.25;;;5.20;99.90;;;;;;5044963;28;20102;-45
2022/11/14 05:34:51;;;;;;;43.40;19.65;;;5.20;99.90;;;;;;5047391;28;20123;-41
2022/11/14 05:37:17;;;;;;;47.33;21.10;;;5.20;99.90;;;;;;5046844;28;20064;-42
2022/11/14 05:39:43;;;;;;;46.58;22.00;;;5.20;99.90;;;;;;5044902;28;20083;-48
2022/11/14 05:42:08;;;;;;;47.63;21.02;;;5.20;99.90;;;;;;5048642;28;20083;-41
2022/11/14 05:44:34;;;;;;;49.92;22.50;;;5.20;99.90;;;;;;5045299;28;20037;-40
2022/11/14 05:46:59;;;;;;;49.65;20.90;;;5.20;99.90;;;;;;5045645;28;20040;-41
2022/11/14 05:49:25;;;;;;;49.53;21.30;;;5.20;99.90;;;;;;5041844;28;20107;-47
2022/11/14 05:51:51;;;;;;;48.63;19.80;;;5.20;99.90;;;;;;5038474;28;20081;-42
2022/11/14 05:54:16;;;;;;;48.22;21.40;;;5.30;99.90;;;;;;5038084;28;20160;-47
2022/11/14 05:56:42;;;;;;;51.88;21.15;;;5.30;99.90;;;;;;5048637;28;20029;-49
2022/11/14 05:59:08;;;;;;;53.13;22.05;;;5.30;99.90;;;;;;5047259;28;20037;-44
2022/11/14 06:01:33;;;;;;;47.70;22.23;;;5.30;99.90;;;;;;5047160;28;20040;-43
2022/11/14 06:03:59;;;;;;;49.42;21.27;;;5.30;99.90;;;;;;5045341;28;20461;-46
2022/11/14 06:06:25;;;;;;;45.33;20.02;;;5.30;99.90;;;;;;5044295;28;20048;-42
2022/11/14 06:08:52;;;;;;;52.25;23.38;;;5.30;99.90;;;;;;5047146;28;20048;-45
2022/11/14 06:11:19;;;;;;;46.95;20.08;;;5.30;99.90;;;;;;5050169;28;20045;-44
2022/11/14 06:13:45;;;;;;;46.90;20.38;;;5.30;99.90;;;;;;5047325;28;20524;-44
2022/11/14 06:16:13;;;;;;;49.75;21.23;;;5.30;99.90;;;;;;5041251;28;20037;-41
2022/11/14 06:18:39;;;;;;;51.08;21.88;;;5.30;99.90;;;;;;5048018;28;20040;-45
2022/11/14 06:21:11;;;;;;;48.63;22.40;;;5.30;99.90;;;;;;5042130;28;20043;-44
2022/11/14 06:23:37;;;;;;;47.80;21.30;;;5.30;99.90;;;;;;5044607;28;20112;-42
2022/11/14 06:26:11;;;;;;;45.40;20.75;;;5.20;99.90;;;;;;5036119;28;20090;-47
2022/11/14 06:28:37;;;;;;;46.90;20.02;;;5.30;99.90;;;;;;5046645;28;20529;-47
2022/11/14 06:31:03;;;;;;;44.38;19.90;;;5.20;99.90;;;;;;5043343;28;20041;-45
2022/11/14 06:33:33;;;;;;;45.17;18.98;;;5.20;99.90;;;;;;5046224;28;20040;-42
2022/11/14 06:36:01;;;;;;;41.97;19.10;;;5.20;99.90;;;;;;5044126;28;20051;-41
2022/11/14 06:38:27;;;;;;;42.35;20.05;;;5.20;99.90;;;;;;5045156;28;20040;-44
2022/11/14 06:41:20;;;;;;;44.03;19.77;;;5.20;99.90;;;;;;5044859;28;20032;-42
2022/11/14 06:43:49;;;;;;;42.30;20.45;;;5.10;99.90;;;;;;5038653;28;20102;-44
2022/11/14 06:46:17;;;;;;;41.35;20.13;;;5.10;99.90;;;;;;5043840;28;20508;-45
2022/11/14 06:48:45;;;;;;;37.63;18.23;;;5.10;99.90;;;;;;5038708;28;20490;-41
2022/11/14 06:51:12;;;;;;;47.63;20.60;;;5.10;99.90;;;;;;5039438;28;20486;-46
2022/11/14 06:53:38;;;;;;;45.50;20.05;;;5.10;99.90;;;;;;5037902;28;20503;-41
2022/11/14 06:56:09;;;;;;;45.10;19.88;;;5.10;99.90;;;;;;5030643;28;20498;-39
2022/11/14 06:58:41;;;;;;;41.97;19.25;;;5.00;99.90;;;;;;5034424;28;20125;-43
2022/11/14 07:01:16;;;;;;;44.00;19.70;;;5.00;99.90;;;;;;5033960;28;20044;-44
2022/11/14 07:03:43;;;;;;;46.25;20.25;;;5.10;99.90;;;;;;5037373;28;20520;-41
2022/11/14 07:06:11;;;;;;;45.95;20.13;;;5.10;99.90;;;;;;5040947;28;20647;-43
2022/11/14 07:08:37;;;;;;;45.55;19.40;;;5.10;99.90;;;;;;5041152;28;20523;-44
2022/11/14 07:11:21;;;;;;;38.40;17.25;;;5.00;99.90;;;;;;5044358;28;20045;-40
2022/11/14 07:13:48;;;;;;;42.15;17.45;;;5.00;99.90;;;;;;5036109;28;20120;-46
2022/11/14 07:16:14;;;;;;;40.65;17.88;;;5.00;99.90;;;;;;5032591;28;20079;-41
2022/11/14 07:18:39;;;;;;;38.72;16.92;;;5.00;99.90;;;;;;5039493;28;20461;-41
2022/11/14 07:21:05;;;;;;;39.22;18.10;;;5.00;99.90;;;;;;5040256;28;20033;-48
2022/11/14 07:23:32;;;;;;;39.42;17.65;;;4.90;99.90;;;;;;5040199;28;20029;-42
2022/11/14 07:26:05;;;;;;;39.42;17.38;;;5.00;99.90;;;;;;5038720;28;20048;-46
2022/11/14 07:28:32;;;;;;;42.42;18.92;;;4.90;99.90;;;;;;5035514;28;20045;-41
2022/11/14 07:30:58;;;;;;;44.75;19.33;;;5.00;99.90;;;;;;5031448;28;20049;-42
2022/11/14 07:33:24;;;;;;;36.05;16.55;;;5.00;99.90;;;;;;5039168;28;20029;-45
2022/11/14 07:35:50;;;;;;;39.67;18.02;;;5.00;99.90;;;;;;5037735;28;20120;-44
2022/11/14 07:38:16;;;;;;;39.53;17.50;;;5.00;99.90;;;;;;5036123;28;20035;-46
2022/11/14 07:40:41;;;;;;;44.15;19.00;;;5.00;99.90;;;;;;5038699;28;20124;-47
2022/11/14 07:43:07;;;;;;;49.13;19.90;;;5.00;99.90;;;;;;5036290;28;20041;-44
2022/11/14 07:45:32;;;;;;;41.63;19.10;;;5.00;99.90;;;;;;5032299;28;20037;-44
2022/11/14 07:48:00;;;;;;;46.83;20.00;;;5.00;99.90;;;;;;5036091;28;20041;-42
2022/11/14 07:50:27;;;;;;;36.08;16.40;;;5.00;99.90;;;;;;5041009;28;20087;-47
2022/11/14 07:52:54;;;;;;;34.45;15.55;;;5.10;99.90;;;;;;5046909;28;20045;-44
2022/11/14 07:55:20;;;;;;;39.60;16.25;;;5.00;99.90;;;;;;5035778;28;20048;-42
2022/11/14 07:57:46;;;;;;;39.75;18.10;;;5.10;99.90;;;;;;5043953;28;20079;-43
2022/11/14 08:00:13;;;;;;;36.95;15.85;;;5.10;99.90;;;;;;5036956;28;20443;-40
2022/11/14 08:02:39;;;;;;;36.90;17.92;;;5.10;99.90;;;;;;5042174;28;20103;-45
2022/11/14 08:05:05;;;;;;;35.63;16.85;;;5.10;99.90;;;;;;5038874;28;20041;-43
2022/11/14 08:07:30;;;;;;;41.10;17.67;;;5.10;99.90;;;;;;5043906;28;20041;-43
2022/11/14 08:09:56;;;;;;;41.65;17.50;;;5.20;99.90;;;;;;5044373;28;20060;-42
2022/11/14 08:12:22;;;;;;;37.00;17.10;;;5.20;99.90;;;;;;5047985;28;20063;-47
2022/11/14 08:14:47;;;;;;;35.13;16.63;;;5.20;99.90;;;;;;5048238;28;20036;-47
2022/11/14 08:17:13;;;;;;;36.08;17.42;;;5.20;99.90;;;;;;5035811;28;20049;-46
2022/11/14 08:19:39;;;;;;;37.15;15.85;;;5.30;99.90;;;;;;5040651;28;20127;-45
2022/11/14 08:22:06;;;;;;;38.38;17.55;;;5.30;99.90;;;;;;5041528;28;20127;-43
2022/11/14 08:24:31;;;;;;;35.10;16.88;;;5.30;99.90;;;;;;5041463;28;20120;-45
2022/11/14 08:26:57;;;;;;;36.25;17.58;;;5.40;99.90;;;;;;5037165;28;20124;-45
2022/11/14 08:29:23;;;;;;;37.60;16.10;;;5.40;99.90;;;;;;5045907;28;20067;-53
2022/11/14 08:31:49;;;;;;;34.20;16.33;;;5.40;99.90;;;;;;5045653;28;20048;-44
2022/11/14 08:34:14;;;;;;;35.35;15.80;;;5.50;99.90;;;;;;5048862;28;20474;-42
2022/11/14 08:36:40;;;;;;;33.15;15.88;;;5.50;99.90;;;;;;5046457;28;20033;-43
2022/11/14 08:39:05;;;;;;;34.33;15.82;;;5.50;99.90;;;;;;5041056;28;20041;-46
2022/11/14 08:41:31;;;;;;;34.90;18.35;;;5.60;99.90;;;;;;5043305;28;20073;-47
2022/11/14 08:43:57;;;;;;;34.65;16.65;;;5.60;99.90;;;;;;5046189;28;20659;-47
2022/11/14 08:46:23;;;;;;;32.58;16.25;;;5.60;99.90;;;;;;5044015;28;20540;-45
2022/11/14 08:48:48;;;;;;;37.63;16.85;;;5.70;99.90;;;;;;5047430;28;20481;-47
2022/11/14 08:51:14;;;;;;;31.73;14.65;;;5.70;99.90;;;;;;5045296;28;20470;-43
2022/11/14 08:53:40;;;;;;;33.78;15.30;;;5.80;99.90;;;;;;5045548;28;20086;-44
2022/11/14 08:56:05;;;;;;;33.15;15.43;;;5.80;99.90;;;;;;5041982;28;20043;-43
2022/11/14 08:58:31;;;;;;;31.63;14.80;;;5.90;99.90;;;;;;5046628;28;20061;-46
2022/11/14 09:01:06;;;;;;;35.72;15.50;;;5.90;99.90;;;;;;5041152;28;20411;-44
2022/11/14 09:03:32;;;;;;;30.63;14.15;;;6.00;99.90;;;;;;5034522;28;20046;-42
2022/11/14 09:05:58;;;;;;;30.33;14.70;;;6.00;99.90;;;;;;5042107;28;20055;-47
2022/11/14 09:08:24;;;;;;;35.60;15.80;;;6.10;99.90;;;;;;5043617;28;20041;-45
2022/11/14 09:10:50;;;;;;;32.92;14.20;;;6.10;99.90;;;;;;5045095;28;20037;-45
2022/11/14 09:13:16;;;;;;;28.90;13.30;;;6.10;99.90;;;;;;5049353;28;20124;-43
2022/11/14 09:15:42;;;;;;;33.30;14.75;;;6.20;99.90;;;;;;5038116;28;20033;-40
2022/11/14 09:18:09;;;;;;;30.65;14.75;;;6.20;99.90;;;;;;5036931;28;20037;-47
2022/11/14 09:20:35;;;;;;;29.80;13.93;;;6.30;99.90;;;;;;5040436;28;20570;-42
2022/11/14 09:23:01;;;;;;;33.05;15.25;;;6.30;99.90;;;;;;5041327;28;20120;-47
2022/11/14 09:25:28;;;;;;;27.83;13.15;;;6.30;99.90;;;;;;5041623;28;20495;-48
2022/11/14 09:27:54;;;;;;;32.47;14.90;;;6.30;99.90;;;;;;5047558;28;20476;-43
2022/11/14 09:30:21;;;;;;;32.35;14.93;;;6.40;99.90;;;;;;5038308;28;20123;-43
2022/11/14 09:32:48;;;;;;;32.75;15.27;;;6.40;99.90;;;;;;5046685;28;20041;-45
2022/11/14 09:35:14;;;;;;;30.88;14.18;;;6.40;99.90;;;;;;5037747;28;20493;-45
2022/11/14 09:37:39;;;;;;;28.83;14.18;;;6.40;99.90;;;;;;5041390;28;20049;-44
2022/11/14 09:40:06;;;;;;;27.67;14.00;;;6.50;99.90;;;;;;5034905;28;20525;-45
2022/11/14 09:43:01;;;;;;;26.90;14.10;;;6.60;99.90;;;;;;5047196;28;20037;-43
2022/11/14 09:45:28;;;;;;;30.27;14.18;;;6.60;99.90;;;;;;5043653;28;20047;-43
2022/11/14 09:48:00;;;;;;;28.70;14.30;;;6.60;99.90;;;;;;5037490;28;20069;-45
2022/11/14 09:50:31;;;;;;;25.15;12.63;;;6.70;99.90;;;;;;5038020;28;20037;-46
2022/11/14 09:53:01;;;;;;;26.70;13.57;;;6.70;99.90;;;;;;5039735;28;20132;-49
2022/11/14 09:55:30;;;;;;;29.80;14.10;;;6.80;99.90;;;;;;5039084;28;20065;-48
2022/11/14 09:57:56;;;;;;;29.13;13.82;;;6.80;99.90;;;;;;5040308;28;20033;-43
2022/11/14 10:00:24;;;;;;;28.65;13.65;;;6.80;99.90;;;;;;5035786;28;20520;-45
2022/11/14 10:02:56;;;;;;;27.08;14.27;;;6.90;99.90;;;;;;5039343;28;20497;-45
2022/11/14 10:05:41;;;;;;;28.38;13.32;;;6.90;99.90;;;;;;5035799;28;20045;-46
2022/11/14 10:08:32;;;;;;;27.58;13.65;;;7.00;99.90;;;;;;5037776;28;20040;-44
2022/11/14 10:11:04;;;;;;;25.25;13.35;;;7.10;99.90;;;;;;5043405;28;21488;-43
2022/11/14 10:13:45;;;;;;;28.33;13.82;;;7.10;99.90;;;;;;5042368;28;20052;-41
2022/11/14 10:16:31;;;;;;;26.90;13.85;;;7.20;99.90;;;;;;5034224;28;20041;-44
2022/11/14 10:19:33;;;;;;;23.50;12.43;;;7.20;99.90;;;;;;5034465;28;20078;-46
2022/11/14 10:22:28;;;;;;;26.10;12.35;;;7.30;99.90;;;;;;5037152;28;20044;-42
2022/11/14 10:25:21;;;;;;;22.00;11.10;;;7.40;99.90;;;;;;5035287;28;20514;-47
2022/11/14 10:28:08;;;;;;;23.23;11.73;;;7.40;99.90;;;;;;5045220;28;20429;-46
2022/11/14 10:31:05;;;;;;;25.08;13.13;;;7.50;99.90;;;;;;5045289;28;20055;-46
2022/11/14 10:34:10;;;;;;;23.10;11.07;;;7.60;99.90;;;;;;5032428;28;20695;-42
2022/11/14 10:37:04;;;;;;;23.88;12.25;;;7.80;99.90;;;;;;5039523;28;20837;-44
2022/11/14 10:39:41;;;;;;;23.92;11.40;;;7.90;99.90;;;;;;5044602;28;20053;-43
2022/11/14 10:42:29;;;;;;;29.38;13.85;;;8.00;99.90;;;;;;5038186;28;20112;-45
2022/11/14 10:45:09;;;;;;;25.35;12.43;;;8.10;99.90;;;;;;5041267;28;20435;-43
2022/11/14 10:47:41;;;;;;;24.13;11.43;;;8.20;99.90;;;;;;5045477;28;20033;-43
2022/11/14 10:50:40;;;;;;;23.10;12.57;;;8.30;99.90;;;;;;5043935;28;20036;-44
2022/11/14 10:53:17;;;;;;;23.25;12.15;;;8.50;99.90;;;;;;5043631;28;20037;-46
2022/11/14 10:55:44;;;;;;;24.42;12.02;;;8.90;99.90;;;;;;5040794;28;20045;-47
2022/11/14 10:58:12;;;;;;;21.70;11.45;;;9.30;99.90;;;;;;5042909;28;20045;-44
2022/11/14 11:00:37;;;;;;;20.42;11.50;;;9.70;99.90;;;;;;5041126;28;20392;-42
2022/11/14 11:03:03;;;;;;;23.13;11.82;;;10.10;99.90;;;;;;5042960;28;20066;-43
2022/11/14 11:05:29;;;;;;;19.80;10.63;;;10.40;99.90;;;;;;5046831;28;20066;-44
2022/11/14 11:13:36;;;;;;;20.02;10.45;;;11.30;99.40;;;;;;5020911;28;20048;-48
2022/11/14 11:16:03;;;;;;;19.17;10.05;;;11.50;98.10;;;;;;5034909;28;20051;-43
2022/11/14 11:18:34;;;;;;;20.42;10.95;;;11.70;97.30;;;;;;5041378;28;20041;-45
2022/11/14 11:21:10;;;;;;;19.73;10.85;;;11.90;96.60;;;;;;5045111;28;20052;-43
2022/11/14 11:23:56;;;;;;;18.55;10.50;;;12.10;96.10;;;;;;5045829;28;20076;-45
2022/11/14 11:26:29;;;;;;;19.20;10.65;;;12.30;95.50;;;;;;5051100;28;20037;-47
2022/11/14 11:29:05;;;;;;;17.20;10.23;;;12.60;95.30;;;;;;5050429;28;20064;-42
2022/11/14 11:31:49;;;;;;;16.90;9.43;;;12.80;94.10;;;;;;5047637;28;20094;-42
2022/11/14 11:34:22;;;;;;;19.02;10.48;;;13.00;93.40;;;;;;5046597;28;20052;-43
2022/11/14 11:37:05;;;;;;;16.02;9.70;;;13.20;93.20;;;;;;5049306;28;20048;-47
2022/11/14 11:39:39;;;;;;;20.10;10.35;;;13.30;92.80;;;;;;5045721;28;20028;-46
2022/11/14 11:42:11;;;;;;;18.90;10.70;;;13.70;92.70;;;;;;5046023;28;20136;-46
2022/11/14 11:44:43;;;;;;;18.67;9.73;;;13.90;91.90;;;;;;5048522;28;20128;-47
2022/11/14 11:47:14;;;;;;;18.88;10.13;;;14.10;91.60;;;;;;5047072;28;20045;-46
2022/11/14 11:49:49;;;;;;;19.65;11.00;;;14.30;91.00;;;;;;5045916;28;20045;-45
2022/11/14 11:52:17;;;;;;;19.25;10.68;;;14.40;90.70;;;;;;5049984;28;20077;-43
2022/11/14 11:55:08;;;;;;;16.98;10.27;;;14.50;90.70;;;;;;5040598;28;20042;-44
2022/11/14 11:57:40;;;;;;;16.08;10.18;;;14.60;88.00;;;;;;5041032;28;20041;-51
2022/11/14 12:00:20;;;;;;;19.40;11.23;;;14.80;89.00;;;;;;5047654;28;20402;-42
2022/11/14 12:02:51;;;;;;;16.63;10.05;;;14.90;87.60;;;;;;5051637;28;20049;-45
2022/11/14 12:05:39;;;;;;;18.77;10.63;;;15.30;87.90;;;;;;5042471;28;20049;-45
2022/11/14 12:08:15;;;;;;;16.95;10.05;;;15.60;85.40;;;;;;5047641;28;20045;-44
2022/11/14 12:10:41;;;;;;;17.02;10.40;;;15.70;84.60;;;;;;5045046;28;20036;-41
2022/11/14 12:13:10;;;;;;;16.55;10.43;;;15.70;84.00;;;;;;5043258;28;20099;-48
2022/11/14 12:16:11;;;;;;;16.77;10.73;;;15.80;82.60;;;;;;5044182;28;20083;-42
2022/11/14 12:18:46;;;;;;;14.05;9.43;;;16.00;82.10;;;;;;5037397;28;20131;-42
2022/11/14 12:21:29;;;;;;;15.00;9.90;;;16.20;81.80;;;;;;5041555;28;20394;-45
2022/11/14 12:24:55;;;;;;;15.32;9.93;;;16.20;76.80;;;;;;5046997;28;20137;-45
2022/11/14 12:27:23;;;;;;;16.95;9.90;;;16.20;74.60;;;;;;5042426;28;20056;-43
2022/11/14 12:30:01;;;;;;;15.68;9.95;;;16.40;77.60;;;;;;5049370;28;20045;-43
2022/11/14 12:32:40;;;;;;;14.07;9.38;;;16.70;75.50;;;;;;5047208;28;20059;-45
2022/11/14 12:35:10;;;;;;;15.15;9.73;;;16.70;74.50;;;;;;5039615;28;20033;-43
2022/11/14 12:37:42;;;;;;;15.60;10.23;;;16.50;75.90;;;;;;5045626;28;20040;-43
2022/11/14 12:40:19;;;;;;;;;;;16.50;75.50;;;;;;5042863;28;20478;-43
2022/11/14 12:42:47;;;;;;;15.23;9.50;;;16.50;69.30;;;;;;5043817;28;19921;-44
2022/11/14 12:45:50;;;;;;;15.05;9.88;;;16.90;75.00;;;;;;5047988;28;20037;-41
2022/11/14 12:48:29;;;;;;;16.08;10.20;;;17.00;70.90;;;;;;5024549;28;20458;-44
2022/11/14 12:50:56;;;;;;;13.13;8.98;;;17.20;72.10;;;;;;5039208;28;20045;-44
2022/11/14 12:53:37;;;;;;;15.05;9.80;;;17.20;72.30;;;;;;5043453;28;20033;-44